Çanakkale Airport

LTBH · Canakkale, Turquie

METAR anciennes LTBH · Aéroport de Çanakkale

Tu vois ci-dessous les METAR des derniers jours. Sélectionne une année pour parcourir les METAR plus anciens, à partir de l'année 2007.

23 mai 2024

Temps Code Temps Temp. Vue Base cloud Vent METAR/SPECI
04:50
M
16 °C 6 km - 360° 360° 5 kt METAR LTBH 230150Z 36005KT 6000 NSC 16/14 Q1009
03:50
M
15 °C 6 km - 040° 040° 5 kt METAR LTBH 230050Z 04005KT 6000 NSC 15/14 Q1010
02:50
M
15 °C 6 km - 040° 040° 5 kt METAR LTBH 222350Z 04005KT 6000 NSC 15/14 Q1010
01:50
M
16 °C 6 km - 050° 050° 5 kt METAR LTBH 222250Z 05005KT 6000 NSC 16/14 Q1010
00:50
M
16 °C 6 km - 040° 040° 4 kt METAR LTBH 222150Z 04004KT 6000 NSC 16/14 Q1010

22 mai 2024

Temps Code Temps Temp. Vue Base cloud Vent METAR/SPECI
23:50
I
16 °C 4,5 km - 030° 030° 4 kt METAR LTBH 222050Z 03004KT 4500 BR NSC 16/14 Q1009
22:50
V
19 °C 10 km+ - 010° 010° 5 kt METAR LTBH 221950Z 01005KT CAVOK 19/15 Q1009
21:50
V
19 °C 10 km+ - 020° 020° 6 kt METAR LTBH 221850Z 02006KT CAVOK 19/15 Q1009
20:50
V
20 °C 10 km+ - 030° 030° 4 kt METAR LTBH 221750Z 03004KT CAVOK 20/14 Q1009
19:50
V
25 °C 10 km+ - 360° 360° 3 kt METAR LTBH 221650Z 36003KT 310V030 CAVOK 25/14 Q1008
18:50
V
26 °C 10 km+ - 020° 020° 4 kt METAR LTBH 221550Z 02004KT 340V060 CAVOK 26/15 Q1008
17:50
V
27 °C 10 km+ - 270° 270° 3 kt METAR LTBH 221450Z 27003KT 190V360 CAVOK 27/15 Q1009
16:50
V
28 °C 10 km+ - 290° 290° 3 kt METAR LTBH 221350Z 29003KT 220V360 CAVOK 28/14 Q1009
15:50
V
27 °C 10 km+ - Var Var 3 kt METAR LTBH 221250Z VRB03KT CAVOK 27/14 Q1010
14:50
V
26 °C 10 km+ 20.000 ft 310° 310° 6 kt METAR LTBH 221150Z 31006KT 270V020 9999 FEW035 BKN200 26/14 Q1010
13:50
V
26 °C 10 km+ 20.000 ft Var Var 2 kt METAR LTBH 221050Z VRB02KT 9999 FEW035 BKN200 26/15 Q1011
12:50
V
25 °C 10 km+ 20.000 ft 350° 350° 5 kt METAR LTBH 220950Z 35005KT 320V030 9999 FEW035 BKN200 25/14 Q1011
11:50
V
24 °C 10 km+ - 360° 360° 4 kt METAR LTBH 220850Z 36004KT 270V060 CAVOK 24/14 Q1011
10:50
V
23 °C 10 km+ - 360° 360° 5 kt METAR LTBH 220750Z 36005KT 290V030 CAVOK 23/15 Q1012
09:50
V
21 °C 10 km+ - 020° 020° 8 kt METAR LTBH 220650Z 02008KT CAVOK 21/15 Q1012
08:50
V
19 °C 10 km+ - 010° 010° 8 kt METAR LTBH 220550Z 01008KT CAVOK 19/15 Q1011
07:50
V
17 °C 10 km+ - 040° 040° 5 kt METAR LTBH 220450Z 04005KT CAVOK 17/14 Q1011
06:50
V
15 °C 10 km+ - 010° 010° 4 kt METAR LTBH 220350Z 01004KT CAVOK 15/13 Q1011
05:50
V
14 °C 10 km+ - 030° 030° 5 kt METAR LTBH 220250Z 03005KT CAVOK 14/12 Q1011
04:50
V
15 °C 10 km+ - 030° 030° 5 kt METAR LTBH 220150Z 03005KT CAVOK 15/13 Q1011
03:50
V
15 °C 10 km+ - 030° 030° 6 kt METAR LTBH 220050Z 03006KT CAVOK 15/13 Q1011
02:50
V
16 °C 10 km+ - 030° 030° 7 kt METAR LTBH 212350Z 03007KT CAVOK 16/14 Q1012
01:50
V
16 °C 10 km+ - 030° 030° 5 kt METAR LTBH 212250Z 03005KT CAVOK 16/13 Q1012
00:50
V
17 °C 10 km+ - 030° 030° 7 kt METAR LTBH 212150Z 03007KT CAVOK 17/14 Q1012

21 mai 2024

Temps Code Temps Temp. Vue Base cloud Vent METAR/SPECI
23:50
V
17 °C 10 km+ - 030° 030° 6 kt METAR LTBH 212050Z 03006KT CAVOK 17/14 Q1012
22:50
V
18 °C 10 km+ - 040° 040° 6 kt METAR LTBH 211950Z 04006KT CAVOK 18/14 Q1013
21:50
V
18 °C 10 km+ - 040° 040° 10 kt METAR LTBH 211850Z 04010KT CAVOK 18/14 Q1013
20:50
V
19 °C 10 km+ - 040° 040° 6 kt METAR LTBH 211750Z 04006KT CAVOK 19/14 Q1013
19:50
V
21 °C 10 km+ - 040° 040° 9 kt METAR LTBH 211650Z 04009KT CAVOK 21/14 Q1013
18:50
V
23 °C 10 km+ - 030° 030° 11 kt METAR LTBH 211550Z 03011KT CAVOK 23/13 Q1012
17:50
V
24 °C 10 km+ - 020° 020° 11 kt METAR LTBH 211450Z 02011KT CAVOK 24/13 Q1012
16:50
V
24 °C 10 km+ - 010° 010° 14 kt METAR LTBH 211350Z 01014KT CAVOK 24/13 Q1013
15:50
V
24 °C 10 km+ - 010° 010° 14 kt METAR LTBH 211250Z 01014KT CAVOK 24/10 Q1013
14:50
V
23 °C 10 km+ - 020° 020° 13 kt METAR LTBH 211150Z 02013KT CAVOK 23/15 Q1014
13:50
V
23 °C 10 km+ - 020° 020° 14 kt METAR LTBH 211050Z 02014KT CAVOK 23/14 Q1015
12:50
V
22 °C 10 km+ - 020° 020° 14 kt METAR LTBH 210950Z 02014KT CAVOK 22/14 Q1015
11:50
V
22 °C 10 km+ - 010° 010° 10 kt METAR LTBH 210850Z 01010KT 330V050 CAVOK 22/14 Q1016
10:50
V
21 °C 10 km+ - 360° 360° 13 kt METAR LTBH 210750Z 36013KT CAVOK 21/13 Q1015
09:50
V
19 °C 10 km+ - 010° 010° 12 kt METAR LTBH 210650Z 01012KT CAVOK 19/13 Q1015
08:50
V
18 °C 10 km+ - 010° 010° 10 kt METAR LTBH 210550Z 01010KT CAVOK 18/13 Q1016
07:50
V
16 °C 10 km+ - 030° 030° 6 kt METAR LTBH 210450Z 03006KT CAVOK 16/13 Q1016
06:50
V
14 °C 10 km+ - 040° 040° 6 kt METAR LTBH 210350Z 04006KT CAVOK 14/12 Q1015
05:50
V
13 °C 10 km+ - 080° 080° 4 kt METAR LTBH 210250Z 08004KT 030V100 CAVOK 13/10 Q1015
04:50
V
12 °C 10 km+ - 040° 040° 6 kt METAR LTBH 210150Z 04006KT CAVOK 12/10 Q1014
03:50
V
14 °C 10 km+ - 040° 040° 8 kt METAR LTBH 210050Z 04008KT CAVOK 14/12 Q1015
02:50
V
15 °C 10 km+ - 040° 040° 8 kt METAR LTBH 202350Z 04008KT CAVOK 15/12 Q1014
01:50
V
15 °C 10 km+ - 050° 050° 6 kt METAR LTBH 202250Z 05006KT CAVOK 15/11 Q1015
00:50
V
15 °C 10 km+ - 040° 040° 3 kt METAR LTBH 202150Z 04003KT 360V060 CAVOK 15/11 Q1015

20 mai 2024

Temps Code Temps Temp. Vue Base cloud Vent METAR/SPECI
23:50
V
16 °C 10 km+ - 050° 050° 4 kt METAR LTBH 202050Z 05004KT CAVOK 16/13 Q1015
22:50
V
16 °C 10 km+ - 040° 040° 6 kt METAR LTBH 201950Z 04006KT CAVOK 16/14 Q1014
21:50
V
17 °C 10 km+ - 030° 030° 8 kt METAR LTBH 201850Z 03008KT CAVOK 17/14 Q1014
20:50
V
19 °C 10 km+ - 010° 010° 9 kt METAR LTBH 201750Z 01009KT CAVOK 19/14 Q1013
19:50
V
21 °C 10 km+ - 360° 360° 9 kt METAR LTBH 201650Z 36009KT CAVOK 21/14 Q1013
18:50
V
22 °C 10 km+ - 010° 010° 12 kt METAR LTBH 201550Z 01012KT CAVOK 22/13 Q1012
17:50
V
24 °C 10 km+ - 360° 360° 13 kt METAR LTBH 201450Z 36013KT CAVOK 24/11 Q1012
16:50
V
25 °C 10 km+ - 010° 010° 14 kt METAR LTBH 201350Z 01014KT CAVOK 25/10 Q1012
15:50
V
25 °C 10 km+ - 360° 360° 14 kt METAR LTBH 201250Z 36014KT CAVOK 25/10 Q1013
14:50
V
24 °C 10 km+ - 010° 010° 15 kt METAR LTBH 201150Z 01015KT CAVOK 24/12 Q1013
13:50
V
23 °C 10 km+ - 360° 360° 15 kt METAR LTBH 201050Z 36015KT CAVOK 23/13 Q1013
12:50
V
22 °C 10 km+ - 360° 360° 14 kt METAR LTBH 200950Z 36014KT 330V030 CAVOK 22/14 Q1013
11:50
V
20 °C 10 km+ - 360° 360° 14 kt METAR LTBH 200850Z 36014KT CAVOK 20/14 Q1013
10:50
V
20 °C 10 km+ - 360° 360° 12 kt METAR LTBH 200750Z 36012KT CAVOK 20/14 Q1014
09:50
V
19 °C 10 km+ - 360° 360° 12 kt METAR LTBH 200650Z 36012KT CAVOK 19/13 Q1014
08:50
V
18 °C 10 km+ - 010° 010° 13 kt METAR LTBH 200550Z 01013KT CAVOK 18/13 Q1014
Signaler les modifications